createdAt,value
2022-08-22T00:00:42.901Z,1010.56
2022-08-22T00:01:39.779Z,1010.54
2022-08-22T00:02:39.850Z,1010.55
2022-08-22T00:02:43.289Z,1010.08
2022-08-22T00:02:53.534Z,1010.15
2022-08-22T00:02:54.995Z,1010.42
2022-08-22T00:02:59.906Z,1010.11
2022-08-22T00:03:00.127Z,1010.10
2022-08-22T00:03:04.348Z,1010.14
2022-08-22T00:03:11.075Z,1010.60
2022-08-22T00:03:39.832Z,1010.56
2022-08-22T00:04:39.858Z,1010.54
2022-08-22T00:05:39.882Z,1010.58
2022-08-22T00:06:39.910Z,1010.61
2022-08-22T00:07:39.939Z,1010.58
2022-08-22T00:08:40.008Z,1010.59
2022-08-22T00:09:39.991Z,1010.58
2022-08-22T00:10:40.020Z,1010.56
2022-08-22T00:11:40.046Z,1010.59
2022-08-22T00:12:40.068Z,1010.56
2022-08-22T00:13:40.096Z,1010.56
2022-08-22T00:14:40.132Z,1010.54
2022-08-22T00:15:43.444Z,1010.54
2022-08-22T00:16:40.178Z,1010.54
2022-08-22T00:17:40.205Z,1010.54
2022-08-22T00:18:40.229Z,1010.57
2022-08-22T00:19:40.256Z,1010.58
2022-08-22T00:20:40.286Z,1010.61
2022-08-22T00:21:40.306Z,1010.61
2022-08-22T00:22:40.363Z,1010.62
2022-08-22T00:23:40.366Z,1010.68
2022-08-22T00:24:40.391Z,1010.66
2022-08-22T00:25:40.418Z,1010.72
2022-08-22T00:26:45.113Z,1010.69
2022-08-22T00:27:43.717Z,1010.67
2022-08-22T00:28:40.499Z,1010.68
2022-08-22T00:29:40.526Z,1010.68
2022-08-22T00:30:40.550Z,1010.67
2022-08-22T00:31:40.576Z,1010.69
2022-08-22T00:32:40.604Z,1010.67
2022-08-22T00:33:40.630Z,1010.69
2022-08-22T00:34:40.656Z,1010.71
2022-08-22T00:35:47.852Z,1010.70
2022-08-22T00:37:45.177Z,1010.69
2022-08-22T00:38:44.729Z,1010.69
2022-08-22T00:40:38.209Z,1010.72
2022-08-22T00:41:37.689Z,1010.71
2022-08-22T00:43:41.710Z,1010.74
2022-08-22T00:44:41.749Z,1010.74
2022-08-22T00:46:46.221Z,1010.72
2022-08-22T00:47:45.775Z,1010.69
2022-08-22T00:49:50.261Z,1010.72
2022-08-22T00:50:49.817Z,1010.70
2022-08-22T00:52:53.829Z,1010.68
2022-08-22T00:53:53.851Z,1010.67
2022-08-22T00:55:58.344Z,1010.68
2022-08-22T00:56:57.887Z,1010.63
2022-08-22T00:59:18.026Z,1010.63
2022-08-22T01:00:01.931Z,1010.61
2022-08-22T01:02:06.428Z,1010.61
2022-08-22T01:03:05.970Z,1010.64
2022-08-22T01:05:10.012Z,1010.61
2022-08-22T01:06:10.032Z,1010.61
2022-08-22T01:08:14.531Z,1010.65
2022-08-22T01:09:14.074Z,1010.66
2022-08-22T01:11:18.093Z,1010.67
2022-08-22T01:12:18.115Z,1010.65
2022-08-22T01:14:34.569Z,1010.65
2022-08-22T01:15:22.151Z,1010.62
2022-08-22T01:17:26.653Z,1010.64
2022-08-22T01:18:26.195Z,1010.62
2022-08-22T01:20:19.136Z,1010.65
2022-08-22T01:21:20.800Z,1010.65
2022-08-22T01:23:23.649Z,1010.65
2022-08-22T01:24:24.171Z,1010.63
2022-08-22T01:26:16.826Z,1010.63
2022-08-22T01:27:16.848Z,1010.62
2022-08-22T01:28:16.869Z,1010.56
2022-08-22T01:29:16.900Z,1010.63
2022-08-22T01:30:16.920Z,1010.62
2022-08-22T01:31:16.948Z,1010.64
2022-08-22T01:32:16.974Z,1010.60
2022-08-22T01:33:17.004Z,1010.56
2022-08-22T01:34:17.027Z,1010.57
2022-08-22T01:35:17.053Z,1010.58
2022-08-22T01:36:17.079Z,1010.60
2022-08-22T01:37:17.109Z,1010.60
2022-08-22T01:38:17.134Z,1010.60
2022-08-22T01:39:17.158Z,1010.58
2022-08-22T01:40:17.218Z,1010.58
2022-08-22T01:41:17.212Z,1010.55
2022-08-22T01:42:17.244Z,1010.54
2022-08-22T01:43:17.263Z,1010.55
2022-08-22T01:44:17.290Z,1010.56
2022-08-22T01:45:17.321Z,1010.57
2022-08-22T01:46:20.745Z,1010.60
2022-08-22T01:47:17.365Z,1010.65
2022-08-22T01:48:17.393Z,1010.62
2022-08-22T01:49:17.421Z,1010.64
2022-08-22T01:50:17.449Z,1010.67
2022-08-22T01:51:17.474Z,1010.65
2022-08-22T01:52:19.492Z,1010.67
2022-08-22T01:53:17.523Z,1010.67
2022-08-22T01:54:17.550Z,1010.64
2022-08-22T01:55:17.574Z,1010.66
2022-08-22T01:56:17.602Z,1010.62
2022-08-22T01:57:17.628Z,1010.63
2022-08-22T01:58:17.657Z,1010.64
2022-08-22T01:59:17.732Z,1010.63
2022-08-22T02:00:17.706Z,1010.62
2022-08-22T02:01:17.781Z,1010.60
2022-08-22T02:02:17.759Z,1010.62
2022-08-22T02:03:17.784Z,1010.60
2022-08-22T02:04:17.811Z,1010.61
2022-08-22T02:05:17.837Z,1010.63
2022-08-22T02:06:17.862Z,1010.63
2022-08-22T02:07:17.890Z,1010.65
2022-08-22T02:08:17.914Z,1010.65
2022-08-22T02:09:17.942Z,1010.65
2022-08-22T02:10:17.966Z,1010.64
2022-08-22T02:11:17.994Z,1010.61
2022-08-22T02:12:21.583Z,1010.66
2022-08-22T02:13:18.047Z,1010.67
2022-08-22T02:14:18.071Z,1010.63
2022-08-22T02:15:18.097Z,1010.65
2022-08-22T02:16:18.121Z,1010.63
2022-08-22T02:17:18.148Z,1010.59
2022-08-22T02:18:18.181Z,1010.56
2022-08-22T02:19:18.201Z,1010.54
2022-08-22T02:20:18.231Z,1010.54
2022-08-22T02:21:18.253Z,1010.54
2022-08-22T02:22:18.278Z,1010.53
2022-08-22T02:23:18.304Z,1010.54
2022-08-22T02:24:18.330Z,1010.55
2022-08-22T02:25:18.358Z,1010.57
2022-08-22T02:26:18.382Z,1010.55
2022-08-22T02:27:18.409Z,1010.56
2022-08-22T02:28:18.434Z,1010.54
2022-08-22T02:29:18.463Z,1010.55
2022-08-22T02:30:18.486Z,1010.52
2022-08-22T02:31:18.511Z,1010.54
2022-08-22T02:32:18.537Z,1010.60
2022-08-22T02:33:18.568Z,1010.55
2022-08-22T02:34:18.591Z,1010.59
2022-08-22T02:35:18.616Z,1010.59
2022-08-22T02:36:18.641Z,1010.56
2022-08-22T02:37:18.667Z,1010.56
2022-08-22T02:38:18.694Z,1010.58
2022-08-22T02:39:18.718Z,1010.54
2022-08-22T02:40:18.778Z,1010.54
2022-08-22T02:41:18.770Z,1010.58
2022-08-22T02:42:18.797Z,1010.58
2022-08-22T02:43:18.824Z,1010.55
2022-08-22T02:44:18.848Z,1010.59
2022-08-22T02:45:18.874Z,1010.59
2022-08-22T02:46:18.898Z,1010.58
2022-08-22T02:47:18.927Z,1010.57
2022-08-22T02:48:18.949Z,1010.56
2022-08-22T02:49:18.979Z,1010.56
2022-08-22T02:50:19.002Z,1010.52
2022-08-22T02:51:19.031Z,1010.52
2022-08-22T02:52:19.054Z,1010.52
2022-08-22T02:53:19.081Z,1010.53
2022-08-22T02:54:19.104Z,1010.52
2022-08-22T02:55:19.130Z,1010.53
2022-08-22T02:56:19.157Z,1010.52
2022-08-22T02:57:19.183Z,1010.51
2022-08-22T02:58:19.210Z,1010.52
2022-08-22T02:59:19.234Z,1010.49
2022-08-22T03:00:30.647Z,1010.47
2022-08-22T03:01:19.335Z,1010.49
2022-08-22T03:02:19.311Z,1010.48
2022-08-22T03:03:19.333Z,1010.44
2022-08-22T03:04:19.362Z,1010.45
2022-08-22T03:05:19.388Z,1010.47
2022-08-22T03:06:19.415Z,1010.42
2022-08-22T03:07:19.441Z,1010.42
2022-08-22T03:08:21.120Z,1010.44
2022-08-22T03:09:19.496Z,1010.40
2022-08-22T03:10:19.518Z,1010.42
2022-08-22T03:11:19.543Z,1010.43
2022-08-22T03:12:19.569Z,1010.41
2022-08-22T03:13:19.595Z,1010.40
2022-08-22T03:14:19.619Z,1010.46
2022-08-22T03:15:19.645Z,1010.45
2022-08-22T03:16:19.670Z,1010.41
2022-08-22T03:17:19.697Z,1010.45
2022-08-22T03:18:19.722Z,1010.42
2022-08-22T03:19:19.746Z,1010.43
2022-08-22T03:20:19.773Z,1010.41
2022-08-22T03:21:19.802Z,1010.39
2022-08-22T03:22:19.824Z,1010.39
2022-08-22T03:23:19.850Z,1010.38
2022-08-22T03:24:19.874Z,1010.39
2022-08-22T03:25:19.903Z,1010.38
2022-08-22T03:26:19.929Z,1010.35
2022-08-22T03:27:32.047Z,1010.39
2022-08-22T03:28:19.979Z,1010.38
2022-08-22T03:29:20.004Z,1010.40
2022-08-22T03:30:20.032Z,1010.37
2022-08-22T03:31:20.057Z,1010.39
2022-08-22T03:32:20.081Z,1010.36
2022-08-22T03:33:20.106Z,1010.38
2022-08-22T03:34:20.136Z,1010.39
2022-08-22T03:35:20.156Z,1010.39
2022-08-22T03:36:20.181Z,1010.38
2022-08-22T03:37:20.212Z,1010.38
2022-08-22T03:38:20.235Z,1010.37
2022-08-22T03:39:20.259Z,1010.37
2022-08-22T03:40:20.356Z,1010.37
2022-08-22T03:41:20.312Z,1010.37
2022-08-22T03:42:20.336Z,1010.33
2022-08-22T03:43:20.362Z,1010.33
2022-08-22T03:44:20.388Z,1010.34
2022-08-22T03:45:20.415Z,1010.35
2022-08-22T03:46:20.441Z,1010.33
2022-08-22T03:47:20.468Z,1010.31
2022-08-22T03:48:20.489Z,1010.31
2022-08-22T03:49:20.516Z,1010.29
2022-08-22T03:50:20.540Z,1010.29
2022-08-22T03:51:20.565Z,1010.27
2022-08-22T03:52:20.593Z,1010.30
2022-08-22T03:53:20.615Z,1010.27
2022-08-22T03:54:20.645Z,1010.31
2022-08-22T03:55:20.665Z,1010.29
2022-08-22T03:56:20.692Z,1010.29
2022-08-22T03:57:20.718Z,1010.29
2022-08-22T03:58:27.917Z,1010.27
2022-08-22T03:59:20.770Z,1010.27
2022-08-22T04:00:20.795Z,1010.26
2022-08-22T04:01:20.884Z,1010.28
2022-08-22T04:02:31.455Z,1010.25
2022-08-22T04:03:20.871Z,1010.23
2022-08-22T04:04:20.896Z,1010.25
2022-08-22T04:05:20.930Z,1010.23
2022-08-22T04:06:20.946Z,1010.23
2022-08-22T04:07:31.604Z,1010.26
2022-08-22T04:08:24.318Z,1010.22
2022-08-22T04:09:21.025Z,1010.29
2022-08-22T04:10:21.049Z,1010.29
2022-08-22T04:11:21.083Z,1010.30
2022-08-22T04:12:21.100Z,1010.29
2022-08-22T04:13:21.127Z,1010.28
2022-08-22T04:14:21.150Z,1010.27
2022-08-22T04:15:21.180Z,1010.30
2022-08-22T04:16:21.200Z,1010.28
2022-08-22T04:17:21.226Z,1010.29
2022-08-22T04:18:21.254Z,1010.25
2022-08-22T04:19:21.277Z,1010.24
2022-08-22T04:20:21.302Z,1010.24
2022-08-22T04:21:21.328Z,1010.28
2022-08-22T04:22:21.356Z,1010.31
2022-08-22T04:23:21.381Z,1010.30
2022-08-22T04:24:21.402Z,1010.30
2022-08-22T04:25:21.435Z,1010.30
2022-08-22T04:26:21.455Z,1010.32
2022-08-22T04:27:21.478Z,1010.29
2022-08-22T04:28:21.504Z,1010.31
2022-08-22T04:29:21.532Z,1010.32
2022-08-22T04:30:21.555Z,1010.30
2022-08-22T04:31:21.583Z,1010.30
2022-08-22T04:32:21.607Z,1010.29
2022-08-22T04:33:21.634Z,1010.31
2022-08-22T04:34:21.658Z,1010.30
2022-08-22T04:35:21.691Z,1010.26
2022-08-22T04:36:21.708Z,1010.34
2022-08-22T04:37:21.732Z,1010.32
2022-08-22T04:38:21.762Z,1010.34
2022-08-22T04:39:21.784Z,1010.35
2022-08-22T04:40:21.905Z,1010.32
2022-08-22T04:41:21.836Z,1010.35
2022-08-22T04:42:33.594Z,1010.35
2022-08-22T04:43:21.944Z,1010.34
2022-08-22T04:44:21.912Z,1010.36
2022-08-22T04:45:21.935Z,1010.35
2022-08-22T04:46:21.961Z,1010.38
2022-08-22T04:47:21.986Z,1010.34
2022-08-22T04:48:22.013Z,1010.34
2022-08-22T04:49:22.037Z,1010.34
2022-08-22T04:50:22.064Z,1010.33
2022-08-22T04:51:22.088Z,1010.33
2022-08-22T04:52:22.115Z,1010.36
2022-08-22T04:53:22.140Z,1010.36
2022-08-22T04:54:22.165Z,1010.38
2022-08-22T04:55:22.190Z,1010.40
2022-08-22T04:56:22.215Z,1010.43
2022-08-22T04:57:22.242Z,1010.40
2022-08-22T04:58:22.270Z,1010.44
2022-08-22T04:59:22.293Z,1010.41
2022-08-22T05:00:22.318Z,1010.43
2022-08-22T05:01:22.427Z,1010.44
2022-08-22T05:02:22.371Z,1010.41
2022-08-22T05:03:22.405Z,1010.42
2022-08-22T05:04:22.420Z,1010.40
2022-08-22T05:05:22.447Z,1010.40
2022-08-22T05:06:22.469Z,1010.39
2022-08-22T05:07:22.497Z,1010.38
2022-08-22T05:08:22.522Z,1010.40
2022-08-22T05:09:22.550Z,1010.41
2022-08-22T05:10:22.574Z,1010.46
2022-08-22T05:11:22.599Z,1010.44
2022-08-22T05:12:22.630Z,1010.45
2022-08-22T05:13:22.651Z,1010.43
2022-08-22T05:14:22.679Z,1010.44
2022-08-22T05:15:23.333Z,1010.43
2022-08-22T05:16:22.728Z,1010.44
2022-08-22T05:17:22.756Z,1010.42
2022-08-22T05:18:22.782Z,1010.43
2022-08-22T05:19:29.597Z,1010.46
2022-08-22T05:20:22.841Z,1010.40
2022-08-22T05:21:22.861Z,1010.41
2022-08-22T05:22:22.887Z,1010.43
2022-08-22T05:23:22.909Z,1010.47
2022-08-22T05:24:22.942Z,1010.45
2022-08-22T05:25:22.967Z,1010.47
2022-08-22T05:26:22.993Z,1010.46
2022-08-22T05:27:23.016Z,1010.48
2022-08-22T05:28:23.044Z,1010.49
2022-08-22T05:29:23.069Z,1010.52
2022-08-22T05:30:23.097Z,1010.54
2022-08-22T05:31:23.223Z,1010.54
2022-08-22T05:32:23.157Z,1010.56
2022-08-22T05:33:23.180Z,1010.58
2022-08-22T05:34:23.201Z,1010.59
2022-08-22T05:35:23.228Z,1010.67
2022-08-22T05:36:23.256Z,1010.59
2022-08-22T05:37:23.290Z,1010.60
2022-08-22T05:38:23.311Z,1010.61
2022-08-22T05:39:23.711Z,1010.65
2022-08-22T05:40:23.506Z,1010.60
2022-08-22T05:41:23.387Z,1010.61
2022-08-22T05:42:23.413Z,1010.65
2022-08-22T05:43:23.436Z,1010.67
2022-08-22T05:44:23.468Z,1010.60
2022-08-22T05:45:23.497Z,1010.64
2022-08-22T05:46:27.016Z,1010.62
2022-08-22T05:47:23.547Z,1010.67
2022-08-22T05:48:23.573Z,1010.64
2022-08-22T05:49:23.597Z,1010.63
2022-08-22T05:50:23.624Z,1010.67
2022-08-22T05:51:23.653Z,1010.64
2022-08-22T05:52:23.680Z,1010.67
2022-08-22T05:53:23.707Z,1010.65
2022-08-22T05:54:33.843Z,1010.64
2022-08-22T05:55:23.758Z,1010.66
2022-08-22T05:56:23.800Z,1010.66
2022-08-22T05:57:23.814Z,1010.70
2022-08-22T05:58:23.841Z,1010.72
2022-08-22T05:59:23.869Z,1010.72
2022-08-22T06:00:23.895Z,1010.73
2022-08-22T06:01:24.004Z,1010.74
2022-08-22T06:02:23.949Z,1010.74
2022-08-22T06:03:23.977Z,1010.75
2022-08-22T06:04:24.000Z,1010.74
2022-08-22T06:05:24.028Z,1010.71
2022-08-22T06:06:24.056Z,1010.75
2022-08-22T06:07:24.083Z,1010.74
2022-08-22T06:08:24.111Z,1010.76
2022-08-22T06:09:24.136Z,1010.74
2022-08-22T06:10:24.162Z,1010.76
2022-08-22T06:11:24.190Z,1010.73
2022-08-22T06:12:24.220Z,1010.75
2022-08-22T06:13:24.716Z,1010.79
2022-08-22T06:14:24.784Z,1010.77
2022-08-22T06:15:24.299Z,1010.79
2022-08-22T06:16:24.332Z,1010.77
2022-08-22T06:17:24.355Z,1010.79
2022-08-22T06:18:24.383Z,1010.80
2022-08-22T06:19:24.409Z,1010.83
2022-08-22T06:20:24.442Z,1010.85
2022-08-22T06:21:24.481Z,1010.91
2022-08-22T06:22:24.492Z,1010.85
2022-08-22T06:23:24.520Z,1010.92
2022-08-22T06:24:24.552Z,1010.91
2022-08-22T06:25:24.579Z,1010.92
2022-08-22T06:26:24.609Z,1010.95
2022-08-22T06:27:24.636Z,1010.93
2022-08-22T06:28:24.666Z,1010.91
2022-08-22T06:29:24.697Z,1010.95
2022-08-22T06:30:24.725Z,1010.91
2022-08-22T06:31:24.755Z,1010.94
2022-08-22T06:32:44.351Z,1010.93
2022-08-22T06:33:24.811Z,1010.97
2022-08-22T06:34:24.839Z,1010.94
2022-08-22T06:35:24.870Z,1011.00
2022-08-22T06:36:32.069Z,1010.98
2022-08-22T06:38:29.395Z,1011.05
2022-08-22T06:39:28.941Z,1011.02
2022-08-22T06:41:32.969Z,1011.04
2022-08-22T06:42:33.007Z,1011.05
2022-08-22T06:44:37.487Z,1011.04
2022-08-22T06:45:37.040Z,1011.06
2022-08-22T06:47:41.069Z,1011.04
2022-08-22T06:48:41.091Z,1011.01
2022-08-22T06:50:34.571Z,1011.00
2022-08-22T06:51:34.058Z,1011.05
2022-08-22T06:53:38.100Z,1011.02
2022-08-22T06:54:38.118Z,1011.05
2022-08-22T06:58:25.330Z,1011.08
2022-08-22T06:59:24.889Z,1011.06
2022-08-22T07:01:28.964Z,1011.09
2022-08-22T07:02:28.944Z,1011.07
2022-08-22T07:04:33.441Z,1011.08
2022-08-22T07:05:32.991Z,1011.02
2022-08-22T07:07:37.023Z,1011.05
2022-08-22T07:08:39.121Z,1011.03
2022-08-22T07:10:30.529Z,1011.00
2022-08-22T07:11:30.015Z,1010.97
2022-08-22T07:13:34.508Z,1010.97
2022-08-22T07:14:34.061Z,1010.95
2022-08-22T07:16:38.092Z,1010.93
2022-08-22T07:17:40.678Z,1010.95
2022-08-22T07:19:42.608Z,1010.94
2022-08-22T07:20:42.159Z,1010.96
2022-08-22T07:22:46.199Z,1010.99
2022-08-22T07:23:49.141Z,1010.99
2022-08-22T07:25:50.714Z,1011.01
2022-08-22T07:26:50.262Z,1011.05
2022-08-22T07:28:58.349Z,1011.03
2022-08-22T07:29:54.306Z,1011.03
2022-08-22T07:31:58.335Z,1011.02
2022-08-22T07:33:21.281Z,1011.08
2022-08-22T07:35:02.846Z,1011.09
2022-08-22T07:36:02.499Z,1011.10
2022-08-22T07:38:06.997Z,1011.10
2022-08-22T07:39:06.548Z,1011.05
2022-08-22T07:41:10.585Z,1011.03
2022-08-22T07:42:10.594Z,1011.07
2022-08-22T07:44:15.088Z,1011.07
2022-08-22T07:45:14.645Z,1011.05
2022-08-22T07:47:26.358Z,1011.06
2022-08-22T07:48:25.477Z,1011.04
2022-08-22T07:50:12.182Z,1011.04
2022-08-22T07:51:11.665Z,1011.03
2022-08-22T07:53:15.769Z,1011.07
2022-08-22T07:54:15.716Z,1011.05
2022-08-22T07:56:20.207Z,1011.08
2022-08-22T07:57:19.759Z,1011.06
2022-08-22T07:59:23.811Z,1011.12
2022-08-22T08:00:23.836Z,1011.11
2022-08-22T08:02:28.321Z,1011.14
2022-08-22T08:03:27.876Z,1011.13
2022-08-22T08:05:31.915Z,1011.13
2022-08-22T08:06:31.937Z,1011.13
2022-08-22T08:08:36.439Z,1011.09
2022-08-22T08:09:35.976Z,1011.08
2022-08-22T08:11:40.007Z,1011.09
2022-08-22T08:12:40.025Z,1011.04
2022-08-22T08:14:44.522Z,1011.05
2022-08-22T08:15:44.073Z,1011.03
2022-08-22T08:17:48.103Z,1010.99
2022-08-22T08:18:48.124Z,1011.01
2022-08-22T08:20:41.106Z,1011.05
2022-08-22T08:21:41.101Z,1011.03
2022-08-22T08:23:45.130Z,1011.03
2022-08-22T08:24:45.687Z,1011.06
2022-08-22T08:26:49.640Z,1011.05
2022-08-22T08:27:50.462Z,1011.06
2022-08-22T08:29:53.222Z,1011.11
2022-08-22T08:30:53.244Z,1011.09
2022-08-22T08:33:24.318Z,1011.09
2022-08-22T08:33:57.292Z,1011.08
2022-08-22T08:36:03.434Z,1011.06
2022-08-22T08:37:01.342Z,1011.05
2022-08-22T08:39:05.844Z,1011.02
2022-08-22T08:40:05.475Z,1011.00
2022-08-22T08:42:09.438Z,1010.95
2022-08-22T08:43:10.879Z,1010.88
2022-08-22T08:45:13.979Z,1010.91
2022-08-22T08:46:13.507Z,1010.87
2022-08-22T08:48:17.531Z,1010.83
2022-08-22T08:49:17.556Z,1010.84
2022-08-22T08:51:23.441Z,1010.79
2022-08-22T08:52:21.611Z,1010.79
2022-08-22T08:54:26.125Z,1010.79
2022-08-22T08:55:25.676Z,1010.81
2022-08-22T08:57:29.731Z,1010.82
2022-08-22T08:58:29.760Z,1010.80
2022-08-22T09:00:23.255Z,1010.83
2022-08-22T09:01:27.513Z,1010.81
2022-08-22T09:03:30.979Z,1010.78
2022-08-22T09:04:26.784Z,1010.79
2022-08-22T09:06:31.281Z,1010.77
2022-08-22T09:07:31.343Z,1010.76
2022-08-22T09:09:34.876Z,1010.74
2022-08-22T09:10:34.893Z,1010.77
2022-08-22T09:12:41.669Z,1010.75
2022-08-22T09:13:40.858Z,1010.72
2022-08-22T09:15:42.991Z,1010.72
2022-08-22T09:16:46.307Z,1010.70
2022-08-22T09:18:47.511Z,1010.65
2022-08-22T09:19:47.066Z,1010.63
2022-08-22T09:21:51.096Z,1010.62
2022-08-22T09:22:51.126Z,1010.61
2022-08-22T09:24:56.114Z,1010.59
2022-08-22T09:25:55.174Z,1010.58
2022-08-22T09:27:59.326Z,1010.53
2022-08-22T09:28:59.227Z,1010.50
2022-08-22T09:31:03.724Z,1010.51
2022-08-22T09:32:03.283Z,1010.54
2022-08-22T09:34:07.341Z,1010.49
2022-08-22T09:35:07.356Z,1010.50
2022-08-22T09:37:14.208Z,1010.52
2022-08-22T09:38:11.410Z,1010.55
2022-08-22T09:40:04.385Z,1010.50
2022-08-22T09:41:04.391Z,1010.45
2022-08-22T09:43:08.893Z,1010.41
2022-08-22T09:44:08.459Z,1010.38
2022-08-22T09:45:08.479Z,1010.41
2022-08-22T09:46:08.511Z,1010.39
2022-08-22T09:47:08.541Z,1010.36
2022-08-22T09:48:08.569Z,1010.37
2022-08-22T09:49:08.606Z,1010.40
2022-08-22T09:50:08.638Z,1010.41
2022-08-22T09:51:31.822Z,1010.35
2022-08-22T09:52:15.218Z,1010.35
2022-08-22T09:53:08.733Z,1010.38
2022-08-22T09:54:08.778Z,1010.33
2022-08-22T09:55:08.830Z,1010.33
2022-08-22T09:56:11.560Z,1010.30
2022-08-22T09:57:08.864Z,1010.27
2022-08-22T09:58:11.442Z,1010.28
2022-08-22T09:59:09.788Z,1010.27
2022-08-22T10:00:08.963Z,1010.31
2022-08-22T10:01:09.055Z,1010.32
2022-08-22T10:02:15.474Z,1010.32
2022-08-22T10:03:09.061Z,1010.26
2022-08-22T10:04:09.109Z,1010.27
2022-08-22T10:05:09.136Z,1010.31
2022-08-22T10:06:09.276Z,1010.31
2022-08-22T10:07:11.914Z,1010.28
2022-08-22T10:08:11.443Z,1010.29
2022-08-22T10:09:09.331Z,1010.24
2022-08-22T10:10:09.293Z,1010.24
2022-08-22T10:11:09.327Z,1010.26
2022-08-22T10:12:12.822Z,1010.26
2022-08-22T10:13:10.432Z,1010.24
2022-08-22T10:14:09.428Z,1010.25
2022-08-22T10:15:09.461Z,1010.29
2022-08-22T10:16:09.492Z,1010.27
2022-08-22T10:17:09.528Z,1010.24
2022-08-22T10:18:10.433Z,1010.19
2022-08-22T10:19:09.592Z,1010.25
2022-08-22T10:20:09.624Z,1010.20
2022-08-22T10:21:09.658Z,1010.25
2022-08-22T10:22:09.693Z,1010.21
2022-08-22T10:23:09.729Z,1010.22
2022-08-22T10:24:09.758Z,1010.19
2022-08-22T10:25:10.326Z,1010.20
2022-08-22T10:26:09.830Z,1010.18
2022-08-22T10:27:09.862Z,1010.19
2022-08-22T10:28:10.557Z,1010.16
2022-08-22T10:29:09.929Z,1010.17
2022-08-22T10:30:09.961Z,1010.19
2022-08-22T10:31:09.998Z,1010.17
2022-08-22T10:32:13.959Z,1010.16
2022-08-22T10:33:12.063Z,1010.13
2022-08-22T10:34:10.097Z,1010.10
2022-08-22T10:35:10.125Z,1010.07
2022-08-22T10:36:12.039Z,1010.07
2022-08-22T10:37:10.255Z,1010.07
2022-08-22T10:38:10.705Z,1010.08
2022-08-22T10:39:11.781Z,1010.08
2022-08-22T10:40:10.377Z,1010.07
2022-08-22T10:41:10.336Z,1010.08
2022-08-22T10:42:10.367Z,1010.04
2022-08-22T10:43:10.411Z,1010.05
2022-08-22T10:44:10.933Z,1010.01
2022-08-22T10:45:10.466Z,1010.01
2022-08-22T10:46:12.532Z,1009.97
2022-08-22T10:47:10.533Z,1009.99
2022-08-22T10:48:10.579Z,1009.96
2022-08-22T10:49:10.607Z,1009.95
2022-08-22T10:50:10.860Z,1009.99
2022-08-22T10:51:10.669Z,1009.97
2022-08-22T10:52:15.567Z,1009.97
2022-08-22T10:53:10.758Z,1010.02
2022-08-22T10:54:10.782Z,1010.01
2022-08-22T10:55:10.811Z,1009.98
2022-08-22T10:56:10.843Z,1009.97
2022-08-22T10:57:10.875Z,1009.93
2022-08-22T10:58:10.913Z,1009.90
2022-08-22T10:59:10.942Z,1009.86
2022-08-22T11:00:10.974Z,1009.86
2022-08-22T11:01:38.539Z,1009.89
2022-08-22T11:02:11.045Z,1009.89
2022-08-22T11:03:14.514Z,1009.90
2022-08-22T11:04:12.277Z,1009.91
2022-08-22T11:05:11.147Z,1009.92
2022-08-22T11:06:12.788Z,1009.90
2022-08-22T11:07:11.208Z,1009.86
2022-08-22T11:08:11.246Z,1009.89
2022-08-22T11:09:11.284Z,1009.89
2022-08-22T11:10:11.316Z,1009.88
2022-08-22T11:11:11.347Z,1009.85
2022-08-22T11:12:11.381Z,1009.86
2022-08-22T11:13:11.416Z,1009.84
2022-08-22T11:14:11.455Z,1009.86
2022-08-22T11:15:11.481Z,1009.85
2022-08-22T11:16:11.515Z,1009.85
2022-08-22T11:17:27.942Z,1009.84
2022-08-22T11:18:13.018Z,1009.84
2022-08-22T11:19:15.047Z,1009.81
2022-08-22T11:20:11.652Z,1009.83
2022-08-22T11:21:11.682Z,1009.83
2022-08-22T11:22:11.716Z,1009.83
2022-08-22T11:23:12.236Z,1009.80
2022-08-22T11:24:19.975Z,1009.80
2022-08-22T11:25:11.816Z,1009.80
2022-08-22T11:26:11.848Z,1009.77
2022-08-22T11:27:13.008Z,1009.78
2022-08-22T11:28:11.920Z,1009.75
2022-08-22T11:29:14.136Z,1009.74
2022-08-22T11:30:18.307Z,1009.73
2022-08-22T11:31:12.018Z,1009.73
2022-08-22T11:32:12.075Z,1009.70
2022-08-22T11:33:13.669Z,1009.72
2022-08-22T11:34:12.120Z,1009.71
2022-08-22T11:35:12.151Z,1009.74
2022-08-22T11:36:12.199Z,1009.74
2022-08-22T11:37:12.315Z,1009.75
2022-08-22T11:38:12.264Z,1009.77
2022-08-22T11:39:18.006Z,1009.77
2022-08-22T11:40:12.362Z,1009.74
2022-08-22T11:41:12.352Z,1009.76
2022-08-22T11:42:12.387Z,1009.70
2022-08-22T11:43:18.251Z,1009.68
2022-08-22T11:44:12.452Z,1009.68
2022-08-22T11:45:16.257Z,1009.68
2022-08-22T11:46:12.524Z,1009.66
2022-08-22T11:47:12.554Z,1009.65
2022-08-22T11:48:12.587Z,1009.65
2022-08-22T11:49:12.629Z,1009.60
2022-08-22T11:50:13.543Z,1009.62
2022-08-22T11:51:13.546Z,1009.61
2022-08-22T11:52:12.727Z,1009.59
2022-08-22T11:53:12.772Z,1009.61
2022-08-22T11:54:12.788Z,1009.60
2022-08-22T11:55:12.823Z,1009.62
2022-08-22T11:56:12.854Z,1009.63
2022-08-22T11:57:12.887Z,1009.60
2022-08-22T11:58:12.922Z,1009.55
2022-08-22T11:59:12.961Z,1009.58
2022-08-22T12:00:12.991Z,1009.56
2022-08-22T12:01:17.240Z,1009.55
2022-08-22T12:02:13.105Z,1009.54
2022-08-22T12:03:13.567Z,1009.55
2022-08-22T12:04:13.126Z,1009.51
2022-08-22T12:05:20.085Z,1009.52
2022-08-22T12:06:13.187Z,1009.50
2022-08-22T12:07:13.225Z,1009.51
2022-08-22T12:08:13.255Z,1009.53
2022-08-22T12:09:13.306Z,1009.49
2022-08-22T12:10:13.745Z,1009.48
2022-08-22T12:11:13.356Z,1009.45
2022-08-22T12:12:13.391Z,1009.48
2022-08-22T12:13:13.423Z,1009.41
2022-08-22T12:14:13.455Z,1009.43
2022-08-22T12:15:13.487Z,1009.39
2022-08-22T12:16:13.535Z,1009.40
2022-08-22T12:17:13.609Z,1009.35
2022-08-22T12:18:20.045Z,1009.39
2022-08-22T12:19:13.615Z,1009.36
2022-08-22T12:20:16.709Z,1009.35
2022-08-22T12:21:13.688Z,1009.38
2022-08-22T12:22:13.722Z,1009.32
2022-08-22T12:23:13.755Z,1009.35
2022-08-22T12:24:19.236Z,1009.33
2022-08-22T12:25:13.822Z,1009.35
2022-08-22T12:26:13.861Z,1009.28
2022-08-22T12:27:13.891Z,1009.32
2022-08-22T12:28:13.932Z,1009.28
2022-08-22T12:29:15.427Z,1009.27
2022-08-22T12:30:14.396Z,1009.28
2022-08-22T12:31:14.016Z,1009.29
2022-08-22T12:32:14.055Z,1009.28
2022-08-22T12:33:20.755Z,1009.29
2022-08-22T12:34:14.122Z,1009.24
2022-08-22T12:35:14.560Z,1009.19
2022-08-22T12:36:18.340Z,1009.16
2022-08-22T12:37:14.222Z,1009.17
2022-08-22T12:38:28.166Z,1009.19
2022-08-22T12:39:14.287Z,1009.16
2022-08-22T12:40:14.489Z,1009.17
2022-08-22T12:41:14.351Z,1009.14
2022-08-22T12:42:14.387Z,1009.17
2022-08-22T12:43:14.419Z,1009.16
2022-08-22T12:44:16.996Z,1009.13
2022-08-22T12:45:14.486Z,1009.11
2022-08-22T12:46:14.525Z,1009.08
2022-08-22T12:47:14.555Z,1009.10
2022-08-22T12:48:14.588Z,1009.10
2022-08-22T12:49:14.624Z,1009.08
2022-08-22T12:50:14.657Z,1009.06
2022-08-22T12:51:17.762Z,1009.03
2022-08-22T12:52:14.720Z,1009.03
2022-08-22T12:53:18.262Z,1009.00
2022-08-22T12:54:14.793Z,1009.00
2022-08-22T12:55:14.823Z,1008.97
2022-08-22T12:56:14.857Z,1008.97
2022-08-22T12:57:23.711Z,1008.96
2022-08-22T12:58:14.925Z,1008.96
2022-08-22T12:59:14.960Z,1008.96
2022-08-22T13:00:14.990Z,1008.95
2022-08-22T13:01:15.103Z,1008.94
2022-08-22T13:02:15.062Z,1008.97
2022-08-22T13:03:15.095Z,1008.95
2022-08-22T13:04:32.390Z,1008.91
2022-08-22T13:05:19.646Z,1008.88
2022-08-22T13:06:15.264Z,1008.90
2022-08-22T13:07:15.231Z,1008.89
2022-08-22T13:08:17.384Z,1008.83
2022-08-22T13:09:15.301Z,1008.85
2022-08-22T13:10:17.479Z,1008.84
2022-08-22T13:11:23.352Z,1008.86
2022-08-22T13:12:15.406Z,1008.84
2022-08-22T13:13:15.439Z,1008.85
2022-08-22T13:14:19.546Z,1008.81
2022-08-22T13:15:15.509Z,1008.78
2022-08-22T13:16:15.563Z,1008.79
2022-08-22T13:17:24.168Z,1008.81
2022-08-22T13:18:29.938Z,1008.84
2022-08-22T13:19:15.647Z,1008.85
2022-08-22T13:20:15.681Z,1008.84
2022-08-22T13:21:15.714Z,1008.86
2022-08-22T13:22:15.754Z,1008.87